Morozovsk, Russia
Current Conditions -  °F | °C
As of 10:30 AM on Friday 31 Oct 2014 (Local Time) from URWW Reporting Station
Clear Clear  
Wind Chill: 38°   Ceiling: Unl
Heat Index: 43°   Visibility: 6mi
Dew Point: 27°   Wind: 9mph
Humidity: 53%   Direction: 90°E
Pressure: 30.18"   Gusts: NA
Location:  48.35°N, 41.83°E
Report Text: URWW 310730Z 09004MPS CAVOK 06/M03 Q1022 NOSIG RMK SC070
Loading
Personal Weather Stations






























Interactive Weather Map
Tropical Storm Tracking
New forecast layout! Learn more

10-Day Weather Forecast

Advertisements
Track Severe Weather on mobile